MNMGMROC

Guest
Details From MNMG - Managua Intl
To MROC - San Jose Juan Santamaria Intl
Flight Number -
Tags generated
Created
Modified
Stats Distance 173 nm / 321 km
Max Altitude 17,000 ft / 5,182 m
Waypoints 4
Social Downloads 3
Likes 0
Share VATSIM

Download

Looking for another format? Having issues loading an existing format? Contact us
Advertisement - Login to hide

Notes

Basic altitude profile: - Ascent Rate: 2500ft/min - Ascent Speed: 250kts - Cruise Altitude: 35000ft - Cruise Speed: 420kts - Descent Rate: 1500ft/min - Descent Speed: 250kts Options: - Use NATs: yes - Use PACOTS: yes - Use low airways: yes - Use high airways: yes

Route

MNMG ULAPO A502 UPALA MROC

ID Type Via Altitude Latitude Longitude Leg Dist Tot Dist Heading (true) Name
O MNMG APT - 0 ft / 0 m 12.14149˚ -86.16818˚ - 0 nm - Managua Intl
ULAPO FIX - 17,000 ft / 5,182 m 11.02833˚ -85.17167˚ 88 nm 88 nm 139° / 139° -
UPALA FIX A502 (AWY-LO) 11,000 ft / 3,353 m 10.32333˚ -84.53500˚ 56 nm 145 nm 138° / 138° -
O MROC APT - 0 ft / 0 m 9.99393˚ -84.20888˚ 27 nm 173 nm 136° / 136° San Jose Juan Santamaria Intl

Altitude Profile

Advertisement - Login to hide

Weather


0- 5 10 15 20 25 30 35+ Temperature / ° C

Clouds and Precipitation
Forecast for 2017-12-13 00:00 UTC. Updated an hour ago

Ground ~20,000 ft ~40,000 ft Winds

MNMG

Details ICAO MNMG (MGA)
Name Managua Intl
Region Nicaragua
Timezone America/Managua (UTC-6.0)
Stats Elevation 194 ft / 59 m (AMSL)
Location 12.141493° -86.168178°
Runways 1
Magnetic Variation 0.945° W

METAR

MNMG 122300Z 13010KT 9999 SCT024 SCT070 27/19 Q1012 A2990 NOSIG

Decode

TAF

Not found

Departure Runways

ID Width Length Bearing (true) Bearing (mag) Surface Threshold Offset Overrun Length
09 148 ft / 45 m 8,008 ft / 2,441 m 96.54° 97.48° Asphalt 0 ft / 0 m 100 ft / 30 m
27 148 ft / 45 m 8,008 ft / 2,441 m 276.55° 277.49° Asphalt 0 ft / 0 m 100 ft / 30 m

MROC

Details ICAO MROC (SJO)
Name San Jose Juan Santamaria Intl
Region Costa Rica
Timezone America/Costa_Rica (UTC-6.0)
Stats Elevation 3,021 ft / 921 m (AMSL)
Location 9.993927° -84.208884°
Runways 1
Magnetic Variation 1.718° W

METAR

MROC 130000Z 11015G25KT 070V140 9999 FEW030 BKN120 19/14 A3004 NOSIG

Decode

TAF

TAF MROC 122300Z 1300/1324 07010KT 9999 FEW030 TX22/1318Z TN18/1310Z TEMPO 1312/1318 09015G30KT

Decode

Destination Runways

ID Width Length Bearing (true) Bearing (mag) Surface Threshold Offset Overrun Length
07 151 ft / 46 m 9,994 ft / 3,046 m 68.91° 70.63° Asphalt 0 ft / 0 m 200 ft / 61 m
25 151 ft / 46 m 9,994 ft / 3,046 m 248.92° 250.64° Asphalt 1,969 ft / 600 m 200 ft / 61 m

Approach Navaids

Runway Type Ident Frequency Range Bearing (true) Bearing (mag) Slope Elevation
07 Localiser IOCO 109.50 MHz 18 nm / 33 km 68.89° 70.61° - 930 ft / 283 m (AMSL)
07 Glidescope IOCO 109.50 MHz 10 nm / 19 km 68.91° 70.63° 3.00° 930 ft / 283 m (AMSL)
07 DME IOCO 109.50 MHz 18 nm / 33 km - - - 930 ft / 283 m (AMSL)

Popular Alternatives